Irving Johnson — WDB3153 — position and weather

sailwx.info

Track history (hours):
 
Tides and Currents Weather Stations Pressure Air Temp Water Temp Dewpoint Dewpoint Depression Visibility Wind Speed Wind Dir Waves Ship Positions

Irving Johnson (United States)

Ship's website: http://www.lamitopsail.org/

Owner: Los Angeles Maritime Institute, San Pedro, CA. More information available from US FCC via Universal Licensing System and Coast Guard Vessel Documentation Center.

Last reported at 2017-Jun-27 20:58 UTC. Time now 2017-Jun-29 01:50 UTC.
Position N 33°44' W 118°17'.

Type: Sailing vessel. MMSI: 369725000.

Date/timePositionNaut miles runAvg speedWind from/ knotsBaromVisibWave heightAir tempDewpointWater temp
2017-Jun-27 20:58N 33°44' W 118°17'0 0.0
2017-Jun-27 20:30N 33°44' W 118°17'0 0.0
2017-Jun-27 19:57N 33°44' W 118°17'0 0.9
2017-Jun-27 19:30N 33°44' W 118°16'0 0.2
2017-Jun-27 18:05N 33°44' W 118°17'0 1.2
2017-Jun-27 18:00N 33°44' W 118°17'0 0.0
2017-Jun-27 17:30N 33°44' W 118°17'0 0.0
2017-Jun-27 17:00N 33°44' W 118°17'0 0.0
2017-Jun-27 16:30N 33°44' W 118°17'0 0.0
2017-Jun-26 20:34N 33°44' W 118°17'0 0.0
2017-Jun-26 20:30N 33°44' W 118°17'0 0.0
2017-Jun-26 20:00N 33°44' W 118°17'0 0.8
2017-Jun-26 19:31N 33°44' W 118°16'2 3.0
2017-Jun-26 19:00N 33°43' W 118°15'  
2017-Jun-22 18:47N 33°44' W 118°17'2 5.1
2017-Jun-22 18:24N 33°42' W 118°15'3 7.5
2017-Jun-22 18:00N 33°41' W 118°18'4 7.2
2017-Jun-22 17:24N 33°38' W 118°22'3 6.4
2017-Jun-22 16:54N 33°35' W 118°24'3 7.4
2017-Jun-22 16:30N 33°33' W 118°26'4 6.0
2017-Jun-22 15:51N 33°29' W 118°28'2 6.1
2017-Jun-22 15:30N 33°27' W 118°29'1 0.0
2017-Jun-21 02:26N 33°27' W 118°29'3 5.9
2017-Jun-21 02:00N 33°26' W 118°26'3 5.6
2017-Jun-21 01:28N 33°25' W 118°23'4 6.1
2017-Jun-21 00:51N 33°22' W 118°20'1 1.1
2017-Jun-20 23:32N 33°21' W 118°19'0 0.0
2017-Jun-20 23:24N 33°21' W 118°19'0 0.0
2017-Jun-20 22:08N 33°21' W 118°19'0 0.0
2017-Jun-20 22:00N 33°21' W 118°19'0 0.0
2017-Jun-20 21:27N 33°21' W 118°19'0 0.0
2017-Jun-20 20:59N 33°21' W 118°19'0 0.0
2017-Jun-20 20:26N 33°21' W 118°19'1 2.1
2017-Jun-20 20:00N 33°22' W 118°19'2 4.6
2017-Jun-20 19:30N 33°23' W 118°16'3 5.2
2017-Jun-20 18:54N 33°21' W 118°19'0 0.1
2017-Jun-20 18:09N 33°21' W 118°19'0 0.1
2017-Jun-20 18:00N 33°21' W 118°19'0 0.0
2017-Jun-20 17:30N 33°21' W 118°19'3 4.3
2017-Jun-20 16:41N 33°24' W 118°22'0 0.0
2017-Jun-20 03:42N 33°24' W 118°22'0 0.0
2017-Jun-20 03:30N 33°24' W 118°22'0 0.0
2017-Jun-20 01:20N 33°24' W 118°22'11 4.4
2017-Jun-19 22:54N 33°34' W 118°19'3 5.0
2017-Jun-19 22:22N 33°37' W 118°18'2 4.5
2017-Jun-19 21:58N 33°38' W 118°17'3 3.0
2017-Jun-19 20:51N 33°41' W 118°16'2 4.0
2017-Jun-19 20:29N 33°43' W 118°16'1 1.2
2017-Jun-19 19:18N 33°44' W 118°17'0 0.0
2017-Jun-19 18:07N 33°44' W 118°17'0 0.0
2017-Jun-19 17:55N 33°44' W 118°17'0 0.0
2017-Jun-19 17:26N 33°44' W 118°17'2 0.1
2017-Jun-18 04:14N 33°43' W 118°14'1 6.2
2017-Jun-18 04:00N 33°43' W 118°12'2 3.5
2017-Jun-18 03:25N 33°45' W 118°10'0 0.9
2017-Jun-18 03:00N 33°44' W 118°10'1 2.2
2017-Jun-18 02:30N 33°43' W 118°11'2 3.3
2017-Jun-18 02:00N 33°42' W 118°13'1 2.0
2017-Jun-18 01:29N 33°42' W 118°14'1 1.8
2017-Jun-18 01:00N 33°43' W 118°15'1 2.8
2017-Jun-18 00:30N 33°43' W 118°16'1 1.1
2017-Jun-17 23:56N 33°44' W 118°17'0 0.0
2017-Jun-17 23:30N 33°44' W 118°17'  
Track history (hours):
 
Tides and Currents Weather Stations Pressure Air Temp Water Temp Dewpoint Dewpoint Depression Visibility Wind Speed Wind Dir Waves Ship Positions

Irving Johnson (United States)

Ship's website: http://www.lamitopsail.org/

Owner: Los Angeles Maritime Institute, San Pedro, CA. More information available from US FCC via Universal Licensing System and Coast Guard Vessel Documentation Center.

Last reported at 2017-Jun-27 20:58 UTC. Time now 2017-Jun-29 01:50 UTC.
Position N 33°44' W 118°17'.

Type: Sailing vessel. MMSI: 369725000.

Date/timePositionNaut miles runAvg speedWind from/ knotsBaromVisibWave heightAir tempDewpointWater temp
2017-Jun-27 20:58N 33°44' W 118°17'0 0.0
2017-Jun-27 20:30N 33°44' W 118°17'0 0.0
2017-Jun-27 19:57N 33°44' W 118°17'0 0.9
2017-Jun-27 19:30N 33°44' W 118°16'0 0.2
2017-Jun-27 18:05N 33°44' W 118°17'0 1.2
2017-Jun-27 18:00N 33°44' W 118°17'0 0.0
2017-Jun-27 17:30N 33°44' W 118°17'0 0.0
2017-Jun-27 17:00N 33°44' W 118°17'0 0.0
2017-Jun-27 16:30N 33°44' W 118°17'0 0.0
2017-Jun-26 20:34N 33°44' W 118°17'0 0.0
2017-Jun-26 20:30N 33°44' W 118°17'0 0.0
2017-Jun-26 20:00N 33°44' W 118°17'0 0.8
2017-Jun-26 19:31N 33°44' W 118°16'2 3.0
2017-Jun-26 19:00N 33°43' W 118°15'  
2017-Jun-22 18:47N 33°44' W 118°17'2 5.1
2017-Jun-22 18:24N 33°42' W 118°15'3 7.5
2017-Jun-22 18:00N 33°41' W 118°18'4 7.2
2017-Jun-22 17:24N 33°38' W 118°22'3 6.4
2017-Jun-22 16:54N 33°35' W 118°24'3 7.4
2017-Jun-22 16:30N 33°33' W 118°26'4 6.0
2017-Jun-22 15:51N 33°29' W 118°28'2 6.1
2017-Jun-22 15:30N 33°27' W 118°29'1 0.0
2017-Jun-21 02:26N 33°27' W 118°29'3 5.9
2017-Jun-21 02:00N 33°26' W 118°26'3 5.6
2017-Jun-21 01:28N 33°25' W 118°23'4 6.1
2017-Jun-21 00:51N 33°22' W 118°20'1 1.1
2017-Jun-20 23:32N 33°21' W 118°19'0 0.0
2017-Jun-20 23:24N 33°21' W 118°19'0 0.0
2017-Jun-20 22:08N 33°21' W 118°19'0 0.0
2017-Jun-20 22:00N 33°21' W 118°19'0 0.0
2017-Jun-20 21:27N 33°21' W 118°19'0 0.0
2017-Jun-20 20:59N 33°21' W 118°19'0 0.0
2017-Jun-20 20:26N 33°21' W 118°19'1 2.1
2017-Jun-20 20:00N 33°22' W 118°19'2 4.6
2017-Jun-20 19:30N 33°23' W 118°16'3 5.2
2017-Jun-20 18:54N 33°21' W 118°19'0 0.1
2017-Jun-20 18:09N 33°21' W 118°19'0 0.1
2017-Jun-20 18:00N 33°21' W 118°19'0 0.0
2017-Jun-20 17:30N 33°21' W 118°19'3 4.3
2017-Jun-20 16:41N 33°24' W 118°22'0 0.0
2017-Jun-20 03:42N 33°24' W 118°22'0 0.0
2017-Jun-20 03:30N 33°24' W 118°22'0 0.0
2017-Jun-20 01:20N 33°24' W 118°22'11 4.4
2017-Jun-19 22:54N 33°34' W 118°19'3 5.0
2017-Jun-19 22:22N 33°37' W 118°18'2 4.5
2017-Jun-19 21:58N 33°38' W 118°17'3 3.0
2017-Jun-19 20:51N 33°41' W 118°16'2 4.0
2017-Jun-19 20:29N 33°43' W 118°16'1 1.2
2017-Jun-19 19:18N 33°44' W 118°17'0 0.0
2017-Jun-19 18:07N 33°44' W 118°17'0 0.0
2017-Jun-19 17:55N 33°44' W 118°17'0 0.0
2017-Jun-19 17:26N 33°44' W 118°17'2 0.1
2017-Jun-18 04:14N 33°43' W 118°14'1 6.2
2017-Jun-18 04:00N 33°43' W 118°12'2 3.5
2017-Jun-18 03:25N 33°45' W 118°10'0 0.9
2017-Jun-18 03:00N 33°44' W 118°10'1 2.2
2017-Jun-18 02:30N 33°43' W 118°11'2 3.3
2017-Jun-18 02:00N 33°42' W 118°13'1 2.0
2017-Jun-18 01:29N 33°42' W 118°14'1 1.8
2017-Jun-18 01:00N 33°43' W 118°15'1 2.8
2017-Jun-18 00:30N 33°43' W 118°16'1 1.1
2017-Jun-17 23:56N 33°44' W 118°17'0 0.0
2017-Jun-17 23:30N 33°44' W 118°17'  

Dump ship's entire track history